Weather observations for the past three days for
Elbow Lake Municipal Airport
Metric (Imperial)
Date Time (cdt) Wind (kph) Vis. (km) Weather Sky Cond. Temperature (ºC) Relative Humidity Wind Chill (°C) Heat Index (°C) Pressure Precipitation (cm)
Air Dwpt 6 hour altimeter (cm) sea level (mb) 1 hr 3 hr 6 hr
Max. Min.
10 09:55 N 15 G 26 16.09 Partly Cloudy SCT075 9.5 -2.8 42% 8 76.63 0.0
10 09:35 N 20 G 26 16.09 Mostly Cloudy BKN075 9.4 -3.1 42% 7 76.63 0.0
10 09:15 NE 15 G 28 16.09 Partly Cloudy SCT075 8.6 -2.8 45% 6 76.63 0.0
10 08:55 NE 19 16.09 Partly Cloudy SCT075 8.5 -2.1 48% 6 76.61 0.0
10 08:35 NE 15 16.09 Mostly Cloudy BKN075 7.9 -0.7 55% 6 76.61 0.0
10 08:15 NE 15 16.09 Mostly Cloudy BKN085 7.6 -0.5 57% 5 76.61 0.0
10 07:55 NE 15 16.09 Overcast OVC085 7.8 -0.2 57% 6 76.58 0.0
10 07:35 N 11 16.09 Overcast OVC085 7.5 -0.8 56% 6 76.56 0.0
10 07:15 N 9 16.09 Overcast OVC085 7.5 -0.9 56% 6 76.53 0.0
10 06:55 N 11 16.09 Overcast OVC085 7.4 -0.7 8 6.2 57% 6 76.53 0.0
10 06:35 NE 6 16.09 Overcast OVC085 7.1 -0.5 59% 76.5 0.0
10 06:15 NE 7 16.09 Mostly Cloudy BKN085 7.1 -0.8 58% 6 76.48 0.0
10 05:55 NE 9 16.09 Mostly Cloudy BKN085 7.2 -0.7 58% 6 76.45 0.0
10 05:35 NE 7 16.09 Overcast OVC085 7.3 -0.4 58% 6 76.43 0.0
10 05:15 NE 11 16.09 Overcast OVC095 7.6 -0.2 58% 6 76.4 0.0
10 04:55 NE 9 16.09 Overcast OVC095 7.7 -0.3 57% 6 76.4 0.0
10 04:35 NE 11 16.09 Overcast OVC095 8 -0.5 55% 6 76.38 0.0
10 04:15 NE 11 16.09 Overcast OVC095 7.5 0.5 62% 6 76.35 0.0
10 03:55 N 6 16.09 Overcast OVC095 7 0.3 63% 76.33 0.0
10 03:35 NW 9 16.09 Overcast OVC095 7.6 -0.5 57% 6 76.3 0.0
10 03:15 W 9 16.09 Overcast OVC095 7 -0.9 58% 5 76.28 0.0
10 02:55 W 7 16.09 Overcast OVC095 7 -1 57% 6 76.28 0.0
10 02:35 W 6 16.09 Overcast OVC095 6.7 -1 58% 76.28 0.0
10 02:15 Calm 16.09 Overcast OVC095 7.5 -1.4 54% 76.25 0.0
10 01:55 Calm 16.09 Overcast OVC095 7.4 -2 52% 76.25 0.0
10 01:35 W 6 16.09 Overcast OVC095 6.3 -0.5 62% 76.25 0.0
10 01:15 W 6 16.09 Overcast OVC095 7 -1.6 55% 76.25 0.0
10 00:55 Calm 16.09 Overcast OVC095 7.3 -1 13.1 7 56% 76.28 0.0
10 00:35 Calm 16.09 Overcast OVC095 7.8 -2.3 49% 76.25 0.0
10 00:15 Calm 16.09 Overcast OVC095 9 -0.2 53% 76.23 0.0
09 23:55 Calm 16.09 Overcast OVC095 9 -0.4 52% 76.23 0.0
09 23:35 Calm 16.09 Overcast OVC095 9.4 -1.5 47% 76.23 0.0
09 23:15 Calm 16.09 Overcast OVC095 9.7 -2.5 43% 76.2 0.0
09 22:55 Calm 16.09 Overcast OVC085 9.6 -1.9 45% 76.2 0.0
09 22:35 Calm 16.09 Overcast OVC085 9.8 -1.1 47% 76.2 0.0
09 22:15 N 6 16.09 Overcast OVC085 10.7 -1.7 42% 76.2 0.0
09 21:55 N 9 16.09 Overcast OVC085 10.8 -2.2 41% 76.17 0.0
09 21:35 N 11 16.09 Overcast OVC085 10.9 -3.2 37% 76.17 0.0
09 21:15 N 7 16.09 Mostly Cloudy BKN085 11 -3.1 37% 76.15 0.0
09 20:55 N 11 16.09 Mostly Cloudy BKN085 11.3 -3.4 36% 76.15 0.0
09 20:35 N 17 G 26 16.09 Mostly Cloudy BKN085 11.9 -3.5 34% 76.12 0.0
09 20:15 N 15 16.09 Partly Cloudy SCT085 12.1 -3 35% 76.1 0.0
09 19:55 N 20 G 39 16.09 Fair CLR 12.4 -3.3 34% 76.1 0.0
09 19:35 NW 20 G 31 16.09 Partly Cloudy SCT080 12.9 -3.5 32% 76.07 0.0
09 19:15 N 19 G 33 16.09 Partly Cloudy SCT080 13 -3.8 31% 76.05 0.0
09 18:55 N 30 G 37 16.09 Partly Cloudy SCT080 13.2 -4.1 13.9 10.7 30% 76.05 0.0
09 18:35 N 22 G 30 16.09 Partly Cloudy SCT080 13.3 -4.6 29% 76.02 0.0
09 18:15 N 26 G 35 16.09 Fair CLR 13.5 -5 28% 76.02 0.0
09 17:55 NW 28 G 35 16.09 Partly Cloudy SCT075 13.1 -4.2 30% 76 0.0
09 17:35 N 30 G 46 16.09 Partly Cloudy SCT065 13.6 -4.7 28% 76 0.0
09 17:15 N 24 G 41 16.09 Partly Cloudy SCT065 13.3 -3.6 31% 76 0.0
09 16:55 NW 30 G 46 16.09 Partly Cloudy SCT065 13.5 -3.7 30% 76 0.0
09 16:35 N 30 G 41 16.09 Mostly Cloudy BKN065 13.4 -3.2 32% 76 0.0
09 16:15 N 26 G 44 16.09 Partly Cloudy SCT065 13.2 -4 30% 76 0.0
09 15:55 NW 24 G 41 16.09 Partly Cloudy SCT065 13.1 -3.3 32% 76 0.0
09 15:35 N 24 G 43 16.09 Partly Cloudy SCT065 13 -3.2 33% 76 0.0
09 15:15 NW 30 G 46 16.09 Partly Cloudy SCT060 12.4 -2.6 35% 76 0.0
09 14:55 NW 30 G 44 16.09 Partly Cloudy SCT060 12.2 -2.6 36% 76 0.0
09 14:35 N 30 G 39 16.09 Partly Cloudy SCT050 12 -1.8 39% 76 0.0
09 14:15 NW 28 G 35 16.09 Partly Cloudy SCT050 12 -1.5 39% 75.97 0.0
09 13:55 N 28 G 43 16.09 Fair CLR 11.2 -2.1 40% 75.97 0.0
09 13:35 N 24 G 44 16.09 Fair CLR 11.4 -1.6 41% 75.97 0.0
09 13:15 NW 30 G 39 16.09 Fair CLR 10.9 -1.7 42% 75.97 0.0
09 12:55 N 31 G 39 16.09 Fair CLR 10.8 -1.6 10.8 6.3 42% 75.95 0.0
09 12:35 N 26 G 44 16.09 Fair CLR 10.3 -1.9 43% 75.95 0.0
09 12:15 N 33 G 41 16.09 Fair and Breezy CLR 10.2 -2 43% 75.92 0.0
09 11:55 N 22 G 41 16.09 Fair CLR 10 -1.8 44% 7 75.92 0.0
09 11:35 N 26 G 41 16.09 Fair CLR 9.7 -2.1 44% 7 75.9 0.0
09 11:15 N 28 G 41 16.09 Fair CLR 9.6 -1.7 46% 7 75.87 0.0
09 10:55 N 30 G 39 16.09 Fair CLR 9.2 -2.7 43% 6 75.87 0.0
09 10:35 N 26 G 37 16.09 Fair CLR 9.3 -1.4 47% 6 75.84 0.0
09 10:15 N 26 G 39 16.09 Fair CLR 8.8 -1.6 48% 6 75.84 0.0
09 09:55 N 30 G 35 16.09 Fair CLR 8.9 -1 50% 5 75.82 0.0
09 09:35 N 24 G 33 16.09 Fair CLR 8.6 -0.7 52% 6 75.79 0.0
09 09:15 N 24 G 39 16.09 Fair CLR 8.5 0.1 56% 5 75.79 0.0
09 08:55 N 22 G 31 16.09 Fair CLR 8.3 0.3 57% 5 75.74 0.0
09 08:35 N 20 16.09 Fair CLR 8 1.5 64% 5 75.72 0.0
09 08:15 N 22 G 28 16.09 Fair CLR 7.1 3.8 80% 4 75.69 0.0
09 07:55 N 19 16.09 Fair CLR 6.6 4.2 85% 4 75.67 0.0
09 07:35 N 20 16.09 Fair CLR 6.5 4.8 89% 3 75.64 0.0
09 07:15 NW 24 16.09 Fair CLR 6.4 5.1 92% 3 75.62 0.0
09 06:55 NW 22 G 28 16.09 Fair CLR 6.5 5 9.9 6 90% 3 75.59 0.0 0.18
09 06:35 NW 15 16.09 Fair CLR 6.1 5 93% 3 75.57 0.0
09 06:15 NW 13 16.09 Fair CLR 6.2 5.1 93% 4 75.54 0.0
09 05:55 NW 11 16.09 Fair CLR 6.6 5 90% 5 75.51 0.0
09 05:35 N 13 16.09 Fair CLR 6.6 5.2 91% 4 75.49 0.0
09 05:15 N 11 16.09 Partly Cloudy SCT037 7 5.8 92% 5 75.46 0.0
09 04:55 N 19 G 28 16.09 Fair CLR 7.2 6.4 95% 4 75.46 0.0
09 04:35 N 20 16.09 Partly Cloudy SCT005 7.5 6.6 94% 4 75.44 0.0
09 04:15 NW 19 16.09 Mostly Cloudy BKN005 BKN008 7.7 6.8 94% 5 75.41 0.0
09 03:55 NW 19 16.09 Partly Cloudy SCT010 SCT065 8.1 7.2 94% 5 75.41 0.0 0.18
09 03:35 NW 13 16.09 Mostly Cloudy BKN065 BKN075 8.5 7.5 94% 7 75.34 0.0
09 03:15 NW 11 16.09 Overcast OVC065 9 8 94% 8 75.31 0.0
09 02:55 NW 7 16.09 Overcast SCT048 OVC050 9.2 8.2 94% 8 75.29 0.0
09 02:35 Calm 16.09 Light Rain SCT049 BKN065 OVC070 9.3 8.2 93% 75.26 0.0
09 02:15 Calm 16.09 Overcast SCT020 BKN050 OVC060 9.2 8.2 94% 75.29 0.0
09 01:55 Calm 11.27 Rain OVC050 9.2 8.2 94% 75.31 0.0 0.15
09 01:35 N 15 G 28 16.09 Rain OVC050 9.2 7.9 92% 7 75.34 0.0 0.08
09 01:15 N 19 16.09 Light Rain OVC060 9.5 8.1 91% 7 75.34 0.0 0.03
09 00:55 N 22 16.09 Light Rain OVC060 10 7.6 18 9.6 85% 7 75.36 0.0 0.03 0.03
09 00:35 N 22 G 33 16.09 Light Rain OVC060 10.5 7.2 80% 75.36 0.0
09 00:15 N 24 G 35 16.09 Overcast OVC060 11.8 6.6 71% 75.36 0.0
08 23:55 N 22 G 35 16.09 Light Rain BKN050 OVC065 11.5 7.4 76% 75.36 0.0
08 23:35 N 35 G 52 16.09 Light Rain and Breezy SCT050 BKN070 OVC075 12.2 6.2 67% 75.34 0.0
08 23:15 NW 17 16.09 Light Rain SCT050 BKN065 OVC090 11.4 2.6 55% 75.31 0.0
08 22:55 SW 7 16.09 Mostly Cloudy SCT075 BKN100 BKN120 10.5 0 49% 75.23 0.0
08 22:35 S 11 16.09 Partly Cloudy SCT110 10 -0.7 48% 9 75.21 0.0
08 22:15 SW 9 16.09 Fair CLR 10.4 -3.1 39% 75.23 0.0
08 21:55 W 6 16.09 Fair CLR 13.1 -2.3 35% 75.26 0.0
08 21:35 Calm 16.09 Fair CLR 13.3 -1.6 36% 75.26 0.0
08 21:15 Calm 16.09 Fair CLR 12.7 -0.3 41% 75.26 0.0
08 20:55 NW 9 16.09 Fair CLR 14.1 -1.7 34% 75.26 0.0
08 20:35 NW 9 16.09 Fair CLR 15.9 -0.8 32% 75.26 0.0
08 20:15 NW 17 16.09 Fair CLR 16.5 -0.3 32% 75.29 0.0
08 19:55 NW 15 G 26 16.09 Fair CLR 17 -1.1 29% 75.29 0.0
08 19:35 NW 22 G 31 16.09 Fair CLR 17.6 -1.1 28% 75.29 0.0
08 19:15 NW 24 G 37 16.09 Fair CLR 17.8 -1.9 26% 75.31 0.0
08 18:55 NW 26 G 41 16.09 Fair CLR 18 -2.3 21.1 18 25% 75.31 0.0
08 18:35 NW 31 G 41 16.09 Fair CLR 18.4 -3.6 22% 75.31 0.0
08 18:15 NW 33 G 48 16.09 Fair and Breezy CLR 18.2 -2.8 24% 75.31 0.0
08 17:55 NW 39 G 52 16.09 Fair and Breezy CLR 18.5 -2.7 24% 75.31 0.0
08 17:35 NW 44 G 57 16.09 Fair and Windy CLR 18.6 -2.6 24% 75.31 0.0
08 17:15 NW 41 G 54 16.09 Fair and Breezy CLR 19.3 -3.1 22% 75.29 0.0
08 16:55 NW 35 G 52 16.09 Partly Cloudy and Breezy SCT090 19.6 -3.1 21% 75.29 0.0
08 16:35 NW 39 G 54 16.09 Partly Cloudy and Breezy SCT090 19.9 -2.8 22% 75.29 0.0
08 16:15 NW 39 G 54 16.09 Partly Cloudy and Breezy SCT095 20.2 -3.2 20% 75.26 0.0
08 15:55 NW 33 G 50 16.09 Partly Cloudy and Breezy SCT100 20.4 -5.2 17% 75.26 0.0
08 15:35 NW 35 G 46 16.09 Fair and Breezy CLR 20.4 -5.4 17% 75.26 0.0
08 15:15 NW 35 G 52 16.09 Partly Cloudy and Breezy SCT100 20.4 -4.8 18% 75.26 0.0
08 14:55 NW 26 G 43 16.09 Partly Cloudy SCT100 21.1 -5.2 17% 75.29 0.0
08 14:35 NW 24 G 44 16.09 Fair CLR 20.7 -5.6 17% 75.29 0.0
08 14:15 NW 20 G 35 16.09 Partly Cloudy SCT100 20 -5 18% 75.29 0.0
08 13:55 NW 15 G 31 16.09 Fair CLR 20 -5.8 17% 75.31 0.0
08 13:35 W 26 G 48 16.09 Partly Cloudy SCT095 20.3 -6.1 16% 75.31 0.0
08 13:15 W 24 G 39 16.09 Partly Cloudy SCT095 20.5 -6.4 16% 75.34 0.0
08 12:55 W 15 G 26 16.09 Mostly Cloudy BKN095 18.8 -6.3 19.4 4.7 18% 75.36 0.0
08 12:35 W 13 16.09 Mostly Cloudy BKN095 BKN110 17.9 -7.1 18% 75.39 0.0
08 12:15 NW 7 16.09 Mostly Cloudy SCT095 BKN110 18.3 -7.1 17% 75.41 0.0
08 11:55 W 9 16.09 Partly Cloudy SCT100 18 -7.1 18% 75.41 0.0
08 11:35 SW 9 16.09 Mostly Cloudy BKN100 17.5 -7.1 18% 75.44 0.0
08 11:15 SW 9 16.09 Mostly Cloudy BKN090 BKN110 16.9 -6.5 20% 75.46 0.0
08 10:55 SW 11 16.09 Mostly Cloudy BKN090 BKN120 16.4 -6.3 21% 75.46 0.0
08 10:35 Calm 16.09 Mostly Cloudy SCT090 BKN120 15.6 -6.6 21% 75.49 0.0
08 10:15 Calm 16.09 Mostly Cloudy SCT090 BKN120 15.3 -5.6 23% 75.49 0.0
08 09:55 S 6 16.09 Mostly Cloudy BKN120 14.6 -3.3 29% 75.51 0.0
08 09:35 Calm 16.09 Partly Cloudy SCT120 14.1 -2.3 32% 75.51 0.0
08 09:15 S 9 16.09 Fair CLR 12.2 -1.2 40% 75.54 0.0
08 08:55 S 7 16.09 Fair CLR 11.5 -2.9 37% 75.54 0.0
08 08:35 S 7 16.09 Fair CLR 9.4 -1.5 47% 9 75.57 0.0
08 08:15 S 7 16.09 Fair CLR 7.8 -1.2 53% 7 75.57 0.0
08 07:55 S 6 16.09 Partly Cloudy SCT090 SCT120 7.1 -0.9 57% 75.57 0.0
08 07:35 Calm 16.09 Overcast BKN090 OVC120 6.6 -0.3 62% 75.54 0.0
08 07:15 Calm 16.09 Mostly Cloudy SCT090 BKN120 6.1 -0.8 62% 75.54 0.0
08 06:55 SE 6 16.09 Mostly Cloudy SCT090 BKN120 4.4 -1.8 7.4 3.8 64% 75.54 0.0
08 06:35 Calm 16.09 Mostly Cloudy BKN100 4.5 -1.2 67% 75.57 0.0
08 06:15 Calm 16.09 Overcast OVC100 4.1 -1.9 65% 75.57 0.0
08 05:55 Calm 16.09 Overcast OVC100 5.6 -1.9 59% 75.54 0.0
08 05:35 NE 6 16.09 Overcast OVC100 4.5 -2.1 63% 75.57 0.0
08 05:15 Calm 16.09 Overcast OVC110 5.5 -0.1 68% 75.54 0.0
08 04:55 Calm 16.09 Mostly Cloudy BKN110 6 -3.5 51% 75.57 0.0
08 04:35 SE 6 16.09 Fair CLR 6.1 -3.4 51% 75.54 0.0
08 04:15 SE 6 16.09 Fair CLR 5.9 -4.5 48% 75.54 0.0
08 03:55 SE 6 16.09 Fair CLR 6 -4.6 47% 75.57 0.0
08 03:35 SE 7 16.09 Fair CLR 6.2 -3.2 51% 5 75.57 0.0
08 03:15 SE 6 16.09 Fair CLR 6 -2.4 55% 75.59 0.0
08 02:55 E 6 16.09 Fair CLR 6.5 -1 59% 75.59 0.0
08 02:35 E 6 16.09 Fair CLR 5.5 -5 47% 75.59 0.0
08 02:15 Calm 16.09 Fair CLR 4.7 -2.6 60% 75.59 0.0
08 01:55 Calm 16.09 Fair CLR 6.6 1.2 69% 75.59 0.0
08 01:35 Calm 16.09 Fair CLR 7.3 -1.3 55% 75.62 0.0
08 01:15 Calm 16.09 Fair CLR 7.3 -0.1 60% 75.62 0.0
08 00:55 Calm 16.09 Fair CLR 7 1.6 15.5 6.6 69% 75.62 0.0
08 00:35 Calm 16.09 Fair CLR 8.2 -1.7 50% 75.64 0.0
08 00:15 Calm 16.09 Fair CLR 9.1 -6.5 33% 75.64 0.0
07 23:55 N 6 16.09 Fair CLR 8.8 -5 38% 75.64 0.0
07 23:35 S 7 16.09 Fair CLR 7.9 -4.6 41% 7 75.64 0.0
07 23:15 S 7 16.09 Fair CLR 7.9 -3.8 44% 7 75.64 0.0
07 22:55 Calm 16.09 Fair CLR 9.1 -0.9 50% 75.64 0.0
07 22:35 S 6 16.09 Fair CLR 9.4 -4.1 39% 75.64 0.0
07 22:15 Calm 16.09 Fair CLR 9.4 -3.6 40% 75.67 0.0
07 21:55 Calm 16.09 Fair CLR 10 -8.1 27% 75.67 0.0
07 21:35 Calm 11.27 Fair CLR 10.3 -7.1 29% 75.64 0.0
07 21:15 Calm 11.27 Fair CLR 10.9 -5.2 32% 75.64 0.0
07 20:55 Calm 11.27 Fair CLR 11.5 -7.1 27% 75.64 0.0
07 20:35 Calm 16.09 Fair CLR 12.4 -6.5 26% 75.62 0.0
07 20:15 NW 7 16.09 Fair CLR 13.5 -7.1 23% 75.62 0.0
07 19:55 NW 13 16.09 Fair CLR 14.7 -7.7 21% 75.62 0.0
07 19:35 NW 13 16.09 Fair CLR 14.9 -6.9 22% 75.62 0.0
07 19:15 W 13 16.09 Fair CLR 15.1 -6.6 22% 75.62 0.0
07 18:55 W 15 G 26 16.09 Fair CLR 15.5 -6.6 16 11.6 21% 75.64 0.0
07 18:35 NW 17 16.09 Fair CLR 15.4 -7 21% 75.64 0.0
07 18:15 NW 19 G 30 16.09 Fair CLR 15.2 -6.7 22% 75.64 0.0
07 17:55 NW 26 G 39 16.09 Partly Cloudy SCT090 15.5 -7.4 20% 75.64 0.0
07 17:35 NW 17 G 26 16.09 Mostly Cloudy BKN090 15.6 -7 21% 75.67 0.0
07 17:15 NW 24 G 31 16.09 Partly Cloudy SCT090 16 -6.7 21% 75.69 0.0
07 16:55 NW 22 G 30 16.09 Partly Cloudy SCT090 15 -6.3 23% 75.69 0.0
07 16:35 W 11 16.09 Partly Cloudy SCT090 14 -6.8 23% 75.69 0.0
07 16:15 NW 19 G 28 16.09 Partly Cloudy SCT080 14.4 -6.4 23% 75.72 0.0
07 15:55 NW 22 G 30 16.09 Mostly Cloudy BKN080 15.5 -6.5 22% 75.72 0.0
07 15:35 W 17 G 33 16.09 Partly Cloudy SCT080 14.4 -5.9 24% 75.74 0.0
07 15:15 NW 17 G 35 16.09 Mostly Cloudy BKN080 13.8 -6.5 24% 75.74 0.0
07 14:55 W 28 G 44 16.09 Partly Cloudy SCT080 14.6 -7.1 22% 75.77 0.0
07 14:35 NW 22 G 33 16.09 Mostly Cloudy BKN080 14.3 -7.4 22% 75.77 0.0
07 14:15 NW 19 G 30 16.09 Partly Cloudy SCT080 13.5 -7.1 23% 75.79 0.0
07 13:55 NW 22 G 35 16.09 Partly Cloudy SCT080 13.3 -7 24% 75.79 0.0
07 13:35 NW 22 G 35 16.09 Partly Cloudy SCT070 SCT080 13.3 -6.4 25% 75.79 0.0
07 13:15 NW 19 G 30 16.09 Mostly Cloudy BKN070 12.3 -6 28% 75.82 0.0
07 12:55 W 13 16.09 Mostly Cloudy BKN070 12.5 -5.9 13.1 -0.8 27% 75.84 0.0
07 12:35 NW 9 G 26 16.09 Mostly Cloudy BKN070 BKN080 12 -6.2 28% 75.87 0.0
07 12:15 W 13 16.09 Overcast OVC070 12.2 -5.5 29% 75.87 0.0
07 11:55 W 13 16.09 Overcast OVC070 11.7 -6.4 28% 75.9 0.0
07 11:35 NW 13 16.09 Mostly Cloudy BKN070 10.7 -6.4 30% 75.9 0.0
07 11:15 W 15 16.09 Partly Cloudy SCT070 11.1 -5.6 31% 75.92 0.0
07 10:55 SW 13 16.09 Fair CLR 11.4 -5.1 31% 75.92 0.0
07 10:35 SW 15 16.09 Fair CLR 10.6 -5.9 31% 75.92 0.0
07 10:15 SW 17 16.09 Fair CLR 10.3 -4.7 35% 75.95 0.0
Date Time (cdt) Wind (kph) Vis. (km) Weather Sky Cond. Air Dwpt Max. Min. Relative Humidity Wind Chill (°C) Heat Index (°C) altimeter (cm) sea level (mb) 1 hr 3 hr 6 hr
6 hour
Temperature (ºC) Pressure Precipitation (cm)